createdAt,value
2019-03-28T00:01:02.829Z,17.53
2019-03-28T00:03:32.896Z,9.83
2019-03-28T00:06:03.001Z,14.20
2019-03-28T00:08:32.986Z,14.07
2019-03-28T00:11:03.030Z,15.33
2019-03-28T00:13:33.038Z,16.67
2019-03-28T00:16:03.040Z,16.33
2019-03-28T00:18:33.136Z,16.47
2019-03-28T00:21:03.281Z,15.97
2019-03-28T00:24:02.516Z,10.50
2019-03-28T00:26:32.622Z,15.83
2019-03-28T00:29:02.944Z,19.97
2019-03-28T00:31:33.031Z,15.30
2019-03-28T00:34:03.192Z,16.23
2019-03-28T00:36:33.192Z,14.73
2019-03-28T00:39:03.236Z,16.00
2019-03-28T00:41:33.214Z,15.63
2019-03-28T00:44:03.193Z,14.83
2019-03-28T00:46:33.301Z,16.33
2019-03-28T00:49:03.360Z,15.60
2019-03-28T00:51:33.339Z,15.43
2019-03-28T00:54:03.325Z,17.03
2019-03-28T00:56:44.862Z,14.70
2019-03-28T00:59:05.084Z,18.27
2019-03-28T01:01:35.424Z,17.33
2019-03-28T01:04:05.944Z,15.63
2019-03-28T01:06:35.973Z,16.70
2019-03-28T01:09:07.502Z,13.30
2019-03-28T01:11:37.496Z,19.33
2019-03-28T01:14:08.249Z,18.10
2019-03-28T01:16:37.322Z,17.07
2019-03-28T01:19:07.792Z,20.37
2019-03-28T01:21:37.836Z,21.43
2019-03-28T01:24:08.071Z,19.10
2019-03-28T01:26:38.234Z,21.30
2019-03-28T01:29:08.234Z,21.63
2019-03-28T01:31:38.280Z,24.50
2019-03-28T01:34:08.312Z,23.57
2019-03-28T01:36:38.586Z,23.93
2019-03-28T01:39:08.560Z,23.63
2019-03-28T01:41:38.790Z,20.87
2019-03-28T01:44:07.892Z,20.23
2019-03-28T01:46:37.879Z,19.30
2019-03-28T01:49:07.900Z,19.13
2019-03-28T01:51:37.893Z,18.90
2019-03-28T01:54:07.889Z,18.40
2019-03-28T01:56:40.265Z,17.63
2019-03-28T01:59:10.235Z,16.50
2019-03-28T02:01:40.275Z,17.07
2019-03-28T02:04:10.332Z,16.07
2019-03-28T02:06:40.304Z,17.37
2019-03-28T02:09:10.367Z,16.90
2019-03-28T02:11:40.465Z,15.30
2019-03-28T02:14:10.449Z,16.17
2019-03-28T02:16:40.672Z,15.43
2019-03-28T02:19:11.587Z,15.97
2019-03-28T02:21:41.606Z,15.80
2019-03-28T02:24:11.701Z,16.70
2019-03-28T02:26:42.037Z,15.30
2019-03-28T02:29:12.162Z,15.07
2019-03-28T02:31:42.905Z,15.70
2019-03-28T02:34:13.389Z,16.10
2019-03-28T02:36:43.410Z,15.63
2019-03-28T02:39:13.378Z,14.27
2019-03-28T02:41:43.477Z,16.03
2019-03-28T02:44:13.707Z,16.27
2019-03-28T02:46:43.770Z,15.53
2019-03-28T02:49:13.944Z,15.93
2019-03-28T02:51:44.093Z,16.70
2019-03-28T02:54:14.295Z,17.13
2019-03-28T02:56:44.340Z,16.13
2019-03-28T02:59:14.316Z,17.23
2019-03-28T03:01:44.319Z,18.47
2019-03-28T03:04:14.339Z,16.70
2019-03-28T03:06:44.525Z,17.10
2019-03-28T03:09:14.674Z,18.03
2019-03-28T03:11:45.346Z,18.23
2019-03-28T03:14:15.663Z,17.80
2019-03-28T03:16:45.916Z,17.60
2019-03-28T03:19:16.084Z,16.70
2019-03-28T03:21:46.385Z,18.00
2019-03-28T03:24:16.491Z,18.17
2019-03-28T03:26:46.663Z,18.37
2019-03-28T03:29:16.981Z,18.97
2019-03-28T03:31:47.047Z,18.80
2019-03-28T03:34:17.594Z,17.67
2019-03-28T03:36:47.620Z,21.47
2019-03-28T03:39:17.762Z,18.13
2019-03-28T03:41:48.027Z,20.00
2019-03-28T03:44:18.174Z,21.33
2019-03-28T03:46:48.317Z,20.07
2019-03-28T03:49:18.879Z,20.03
2019-03-28T03:51:48.869Z,18.83
2019-03-28T03:54:19.022Z,19.23
2019-03-28T03:56:49.087Z,19.80
2019-03-28T03:59:19.368Z,20.20
2019-03-28T04:01:49.462Z,18.60
2019-03-28T04:04:19.704Z,17.50
2019-03-28T04:06:49.890Z,17.17
2019-03-28T04:09:20.229Z,18.80
2019-03-28T04:11:50.271Z,17.37
2019-03-28T04:14:20.403Z,17.17
2019-03-28T04:16:50.593Z,17.80
2019-03-28T04:19:20.750Z,17.73
2019-03-28T04:21:50.772Z,17.23
2019-03-28T04:24:21.821Z,17.67
2019-03-28T04:26:52.054Z,16.17
2019-03-28T04:29:22.214Z,18.20
2019-03-28T04:31:52.243Z,17.03
2019-03-28T04:34:22.299Z,17.07
2019-03-28T04:36:52.350Z,18.73
2019-03-28T04:39:22.523Z,16.50
2019-03-28T04:41:52.721Z,16.93
2019-03-28T04:44:22.840Z,16.80
2019-03-28T04:46:52.907Z,17.40
2019-03-28T04:49:23.093Z,16.30
2019-03-28T04:51:53.451Z,18.03
2019-03-28T04:54:23.599Z,18.20
2019-03-28T04:56:53.781Z,18.17
2019-03-28T04:59:24.009Z,16.97
2019-03-28T05:02:02.839Z,16.83
2019-03-28T05:04:25.986Z,18.07
2019-03-28T05:06:56.084Z,17.93
2019-03-28T05:09:26.107Z,17.97
2019-03-28T05:11:56.132Z,18.27
2019-03-28T05:14:26.167Z,17.73
2019-03-28T05:16:56.360Z,17.63
2019-03-28T05:19:26.485Z,15.80
2019-03-28T05:21:56.774Z,18.77
2019-03-28T05:24:26.924Z,16.27
2019-03-28T05:26:57.103Z,17.63
2019-03-28T05:29:27.251Z,16.53
2019-03-28T05:31:57.465Z,16.87
2019-03-28T05:34:27.613Z,17.03
2019-03-28T05:36:58.091Z,15.97
2019-03-28T05:39:28.367Z,16.50
2019-03-28T05:41:58.478Z,16.13
2019-03-28T05:44:28.618Z,15.40
2019-03-28T05:46:58.630Z,15.70
2019-03-28T05:49:28.699Z,14.60
2019-03-28T05:51:58.714Z,16.43
2019-03-28T05:54:28.696Z,15.27
2019-03-28T05:56:58.872Z,15.77
2019-03-28T05:59:29.174Z,14.43
2019-03-28T06:01:59.206Z,14.87
2019-03-28T06:04:29.204Z,14.07
2019-03-28T06:06:59.239Z,13.00
2019-03-28T06:09:28.383Z,12.70
2019-03-28T06:11:57.635Z,13.10
2019-03-28T06:14:26.810Z,13.13
2019-03-28T06:16:55.986Z,13.20
2019-03-28T06:19:25.231Z,12.57
2019-03-28T06:21:54.395Z,12.60
2019-03-28T06:24:23.690Z,12.70
2019-03-28T06:26:53.019Z,12.57
2019-03-28T06:29:24.046Z,12.33
2019-03-28T06:31:55.509Z,12.97
2019-03-28T06:34:24.234Z,12.80
2019-03-28T06:36:53.417Z,12.83
2019-03-28T06:39:22.611Z,12.30
2019-03-28T06:41:51.799Z,13.67
2019-03-28T06:44:20.924Z,12.50
2019-03-28T06:46:50.060Z,11.67
2019-03-28T06:49:19.176Z,12.97
2019-03-28T06:51:48.313Z,12.07
2019-03-28T06:54:17.468Z,12.63
2019-03-28T06:56:46.584Z,13.23
2019-03-28T06:59:15.726Z,13.40
2019-03-28T07:01:44.955Z,12.43
2019-03-28T07:04:14.188Z,12.20
2019-03-28T07:06:43.329Z,12.03
2019-03-28T07:09:12.661Z,12.63
2019-03-28T07:11:41.829Z,11.40
2019-03-28T07:14:11.010Z,14.53
2019-03-28T07:16:40.217Z,12.17
2019-03-28T07:19:09.878Z,11.67
2019-03-28T07:21:39.014Z,10.30
2019-03-28T07:24:08.205Z,10.17
2019-03-28T07:26:37.374Z,9.43
2019-03-28T07:29:06.512Z,10.83
2019-03-28T07:31:35.783Z,11.37
2019-03-28T07:34:04.926Z,11.00
2019-03-28T07:36:34.082Z,12.13
2019-03-28T07:39:03.672Z,9.47
2019-03-28T07:41:32.818Z,10.10
2019-03-28T07:44:02.008Z,10.03
2019-03-28T07:46:31.154Z,9.63
2019-03-28T07:49:00.305Z,8.67
2019-03-28T07:51:29.486Z,8.80
2019-03-28T07:53:59.454Z,10.03
2019-03-28T07:56:29.464Z,8.10
2019-03-28T07:58:59.684Z,8.03
2019-03-28T08:01:29.660Z,8.87
2019-03-28T08:03:59.752Z,8.60
2019-03-28T08:06:30.051Z,8.20
2019-03-28T08:09:00.160Z,7.90
2019-03-28T08:11:30.188Z,9.70
2019-03-28T08:14:00.433Z,8.70
2019-03-28T08:16:30.570Z,9.53
2019-03-28T08:19:00.767Z,10.07
2019-03-28T08:21:30.854Z,7.63
2019-03-28T08:24:00.967Z,6.67
2019-03-28T08:26:30.942Z,6.50
2019-03-28T08:29:00.894Z,5.70
2019-03-28T08:31:31.035Z,5.07
2019-03-28T08:34:02.018Z,4.63
2019-03-28T08:36:32.376Z,5.43
2019-03-28T08:39:02.515Z,4.97
2019-03-28T08:41:31.732Z,5.23
2019-03-28T08:44:00.930Z,6.10
2019-03-28T08:46:30.062Z,5.60
2019-03-28T08:48:59.330Z,5.73
2019-03-28T08:51:29.556Z,5.73
2019-03-28T08:53:59.541Z,6.10
2019-03-28T08:56:29.608Z,5.83
2019-03-28T08:58:59.875Z,5.20
2019-03-28T09:01:29.880Z,5.73
2019-03-28T09:03:59.881Z,5.93
2019-03-28T09:06:29.966Z,6.50
2019-03-28T09:09:00.057Z,6.20
2019-03-28T09:11:30.397Z,6.30
2019-03-28T09:14:00.367Z,6.50
2019-03-28T09:16:30.352Z,7.00
2019-03-28T09:19:00.313Z,7.17
2019-03-28T09:21:30.595Z,6.77
2019-03-28T09:24:00.580Z,6.97
2019-03-28T09:26:30.742Z,6.28
2019-03-28T09:29:00.741Z,7.03
2019-03-28T09:31:30.813Z,7.43
2019-03-28T09:34:00.813Z,7.50
2019-03-28T09:36:30.868Z,7.50
2019-03-28T09:39:00.031Z,6.85
2019-03-28T09:41:29.188Z,6.60
2019-03-28T09:43:58.405Z,7.20
2019-03-28T09:46:27.662Z,7.30
2019-03-28T09:48:56.809Z,6.90
2019-03-28T09:51:26.145Z,8.10
2019-03-28T09:53:56.187Z,7.95
2019-03-28T09:56:26.335Z,7.08
2019-03-28T09:58:56.269Z,6.75
2019-03-28T10:01:26.401Z,6.37
2019-03-28T10:03:56.702Z,6.12
2019-03-28T10:06:26.797Z,5.78
2019-03-28T10:08:56.935Z,6.35
2019-03-28T10:11:27.105Z,6.53
2019-03-28T10:13:57.389Z,5.50
2019-03-28T10:16:27.506Z,6.12
2019-03-28T10:18:57.515Z,5.70
2019-03-28T10:21:27.648Z,4.85
2019-03-28T10:23:58.252Z,5.17
2019-03-28T10:26:28.246Z,5.97
2019-03-28T10:28:58.333Z,5.50
2019-03-28T10:31:28.303Z,5.78
2019-03-28T10:33:58.671Z,5.65
2019-03-28T10:36:28.883Z,5.42
2019-03-28T10:38:58.833Z,6.10
2019-03-28T10:41:29.082Z,5.28
2019-03-28T10:43:59.626Z,5.63
2019-03-28T10:46:30.754Z,5.40
2019-03-28T10:49:00.824Z,5.37
2019-03-28T10:51:30.914Z,5.90
2019-03-28T10:54:00.900Z,5.47
2019-03-28T10:56:30.906Z,4.92
2019-03-28T10:59:00.951Z,4.55
2019-03-28T11:01:47.534Z,4.63
2019-03-28T11:04:02.941Z,4.85
2019-03-28T11:06:33.142Z,4.37
2019-03-28T11:09:03.399Z,5.03
2019-03-28T11:11:33.630Z,5.25
2019-03-28T11:14:03.734Z,4.62
2019-03-28T11:16:33.101Z,5.00
2019-03-28T11:19:03.199Z,5.15
2019-03-28T11:21:34.396Z,4.85
2019-03-28T11:24:04.685Z,5.53
2019-03-28T11:26:34.790Z,4.37
2019-03-28T11:29:04.907Z,5.00
2019-03-28T11:31:45.754Z,4.78
2019-03-28T11:34:06.612Z,4.67
2019-03-28T11:36:36.577Z,4.53
2019-03-28T11:39:07.500Z,4.87
2019-03-28T11:41:36.740Z,5.33
2019-03-28T11:44:06.729Z,5.50
2019-03-28T11:46:37.313Z,4.95
2019-03-28T11:49:07.440Z,5.10
2019-03-28T11:51:37.497Z,5.60
2019-03-28T11:54:07.507Z,6.35
2019-03-28T11:56:37.429Z,4.87
2019-03-28T11:59:07.451Z,5.10
2019-03-28T12:01:37.515Z,4.43
2019-03-28T12:04:07.599Z,3.83
2019-03-28T12:06:37.636Z,3.50
2019-03-28T12:09:09.000Z,3.67
2019-03-28T12:11:39.106Z,4.00
2019-03-28T12:14:09.325Z,3.60
2019-03-28T12:16:39.394Z,3.10
2019-03-28T12:19:09.358Z,3.77
2019-03-28T12:21:39.364Z,3.05
2019-03-28T12:24:09.569Z,3.60
2019-03-28T12:26:39.217Z,3.45
2019-03-28T12:29:08.467Z,3.72
2019-03-28T12:31:37.662Z,3.90
2019-03-28T12:34:06.927Z,4.15
2019-03-28T12:36:36.043Z,3.95
2019-03-28T12:39:06.363Z,3.60
2019-03-28T12:41:35.660Z,3.40
2019-03-28T12:44:05.690Z,2.98
2019-03-28T12:46:35.766Z,2.95
2019-03-28T12:49:05.790Z,3.25
2019-03-28T12:51:35.884Z,3.10
2019-03-28T12:54:05.872Z,3.08
2019-03-28T12:56:36.056Z,3.15
2019-03-28T12:59:05.289Z,3.02
2019-03-28T13:01:35.696Z,2.90
2019-03-28T13:04:05.751Z,3.20
2019-03-28T13:06:35.906Z,2.72
2019-03-28T13:09:09.728Z,2.87
2019-03-28T13:11:39.941Z,2.90
2019-03-28T13:14:09.153Z,2.87
2019-03-28T13:16:39.501Z,2.70
2019-03-28T13:19:09.598Z,2.90
2019-03-28T13:21:39.756Z,2.67
2019-03-28T13:24:08.942Z,2.85
2019-03-28T13:26:38.938Z,2.85
2019-03-28T13:29:08.937Z,3.10
2019-03-28T13:31:38.972Z,2.45
2019-03-28T13:34:09.293Z,2.47
2019-03-28T13:36:39.361Z,2.58
2019-03-28T13:39:09.620Z,2.58
2019-03-28T13:41:39.647Z,2.80
2019-03-28T13:44:12.142Z,2.80
2019-03-28T13:46:41.348Z,2.67
2019-03-28T13:49:11.312Z,2.45
2019-03-28T13:51:41.424Z,2.60
2019-03-28T13:54:11.517Z,2.40
2019-03-28T13:56:41.525Z,2.22
2019-03-28T13:59:11.673Z,2.05
2019-03-28T14:01:41.664Z,2.00
2019-03-28T14:04:11.789Z,2.08
2019-03-28T14:06:41.782Z,2.20
2019-03-28T14:09:11.988Z,2.10
2019-03-28T14:11:42.114Z,1.80
2019-03-28T14:14:12.116Z,1.80
2019-03-28T14:16:42.078Z,1.67
2019-03-28T14:19:12.238Z,1.80
2019-03-28T14:21:42.616Z,1.95
2019-03-28T14:24:12.656Z,2.05
2019-03-28T14:26:43.010Z,1.92
2019-03-28T14:29:13.002Z,2.30
2019-03-28T14:31:43.020Z,14.95
2019-03-28T14:34:12.991Z,21.40
2019-03-28T14:36:43.046Z,10.68
2019-03-28T14:39:13.304Z,6.35
2019-03-28T14:41:46.247Z,1.62
2019-03-28T14:44:15.279Z,1.55
2019-03-28T14:46:45.405Z,1.40
2019-03-28T14:49:15.563Z,1.60
2019-03-28T14:51:45.745Z,146.10
2019-03-28T14:54:15.767Z,3.87
2019-03-28T14:56:45.833Z,2.98
2019-03-28T14:59:16.664Z,1.87
2019-03-28T15:01:46.749Z,1.90
2019-03-28T15:04:16.735Z,1.75
2019-03-28T15:06:46.721Z,17.40
2019-03-28T15:09:16.707Z,1.70
2019-03-28T15:11:46.845Z,1.90
2019-03-28T15:14:16.802Z,1.90
2019-03-28T15:16:46.853Z,1.50
2019-03-28T15:19:16.813Z,1.67
2019-03-28T15:21:46.815Z,2.47
2019-03-28T15:24:16.040Z,4.65
2019-03-28T15:26:46.075Z,2.00
2019-03-28T15:29:16.267Z,2.10
2019-03-28T15:31:46.197Z,5.05
2019-03-28T15:34:15.341Z,17.70
2019-03-28T15:36:44.892Z,2.67
2019-03-28T15:39:14.074Z,2.67
2019-03-28T15:41:43.243Z,2.67
2019-03-28T15:44:12.405Z,2.40
2019-03-28T15:46:41.534Z,2.87
2019-03-28T15:49:10.718Z,2.27
2019-03-28T15:51:41.283Z,5.13
2019-03-28T15:54:10.434Z,5.60
2019-03-28T15:56:39.581Z,3.77
2019-03-28T15:59:08.705Z,8.70
2019-03-28T16:01:37.863Z,7.13
2019-03-28T16:04:07.019Z,4.77
2019-03-28T16:06:36.161Z,10.47
2019-03-28T16:09:06.372Z,4.50
2019-03-28T16:11:35.691Z,6.10
2019-03-28T16:14:04.846Z,13.03
2019-03-28T16:16:34.181Z,11.00
2019-03-28T16:19:03.303Z,8.30
2019-03-28T16:21:32.464Z,6.43
2019-03-28T16:24:01.742Z,12.13
2019-03-28T16:26:30.838Z,12.80
2019-03-28T16:29:00.028Z,12.03
2019-03-28T16:31:29.191Z,6.80
2019-03-28T16:34:06.929Z,3.53
2019-03-28T16:36:29.146Z,3.20
2019-03-28T16:38:58.514Z,3.00
2019-03-28T16:41:27.694Z,2.60
2019-03-28T16:43:59.659Z,2.70
2019-03-28T16:46:29.897Z,2.20
2019-03-28T16:48:59.968Z,2.30
2019-03-28T16:51:29.972Z,1.93
2019-03-28T16:54:00.187Z,2.17
2019-03-28T16:56:30.554Z,1.93
2019-03-28T16:59:00.536Z,1.97
2019-03-28T17:01:30.535Z,1.57
2019-03-28T17:04:00.516Z,3.00
2019-03-28T17:06:30.532Z,2.60
2019-03-28T17:09:01.534Z,2.75
2019-03-28T17:11:31.568Z,2.83
2019-03-28T17:14:01.572Z,2.58
2019-03-28T17:16:31.625Z,2.85
2019-03-28T17:19:01.648Z,3.85
2019-03-28T17:21:31.647Z,4.65
2019-03-28T17:24:01.667Z,4.33
2019-03-28T17:26:31.745Z,3.55
2019-03-28T17:29:02.122Z,3.20
2019-03-28T17:31:32.119Z,3.33
2019-03-28T17:34:02.581Z,3.17
2019-03-28T17:36:32.709Z,3.80
2019-03-28T17:39:03.098Z,3.60
2019-03-28T17:41:33.098Z,3.45
2019-03-28T17:44:03.116Z,3.75
2019-03-28T17:46:33.107Z,3.87
2019-03-28T17:49:03.091Z,5.00
2019-03-28T17:51:33.117Z,4.50
2019-03-28T17:54:03.095Z,4.30
2019-03-28T17:56:33.415Z,5.30
2019-03-28T17:59:03.390Z,6.70
2019-03-28T18:01:33.553Z,6.58
2019-03-28T18:04:03.687Z,6.85
2019-03-28T18:06:34.837Z,7.08
2019-03-28T18:09:06.731Z,7.80
2019-03-28T18:11:36.777Z,7.97
2019-03-28T18:14:06.815Z,11.97
2019-03-28T18:16:37.115Z,8.28
2019-03-28T18:19:07.132Z,8.73
2019-03-28T18:21:37.455Z,12.78
2019-03-28T18:24:07.529Z,12.28
2019-03-28T18:26:37.670Z,13.38
2019-03-28T18:29:07.713Z,13.58
2019-03-28T18:31:50.397Z,15.88
2019-03-28T18:34:12.476Z,16.25
2019-03-28T18:36:42.647Z,17.65
2019-03-28T18:39:12.637Z,19.15
2019-03-28T18:41:42.645Z,17.47
2019-03-28T18:44:12.715Z,17.55
2019-03-28T18:46:42.784Z,16.57
2019-03-28T18:49:12.798Z,17.67
2019-03-28T18:51:42.808Z,17.27
2019-03-28T18:54:12.864Z,17.05
2019-03-28T18:56:44.053Z,16.00
2019-03-28T18:59:14.103Z,16.23
2019-03-28T19:01:44.109Z,16.62
2019-03-28T19:04:14.199Z,18.70
2019-03-28T19:06:44.225Z,17.73
2019-03-28T19:09:14.241Z,17.75
2019-03-28T19:11:44.285Z,17.90
2019-03-28T19:14:14.270Z,16.95
2019-03-28T19:16:44.304Z,17.10
2019-03-28T19:19:14.317Z,17.83
2019-03-28T19:21:44.545Z,18.35
2019-03-28T19:24:14.558Z,18.82
2019-03-28T19:26:44.549Z,21.37
2019-03-28T19:29:14.596Z,18.00
2019-03-28T19:31:44.664Z,18.25
2019-03-28T19:34:14.849Z,18.63
2019-03-28T19:36:46.761Z,20.17
2019-03-28T19:39:21.562Z,22.73
2019-03-28T19:41:51.572Z,19.30
2019-03-28T19:44:21.588Z,18.62
2019-03-28T19:46:52.447Z,74.42
2019-03-28T19:49:23.358Z,22.05
2019-03-28T19:51:53.764Z,19.45
2019-03-28T19:54:24.156Z,19.33
2019-03-28T19:56:57.192Z,20.08
2019-03-28T19:59:25.996Z,19.77
2019-03-28T20:01:56.384Z,24.63
2019-03-28T20:04:26.399Z,21.80
2019-03-28T20:06:56.396Z,20.48
2019-03-28T20:09:26.384Z,21.23
2019-03-28T20:12:00.049Z,20.82
2019-03-28T20:14:28.068Z,22.22
2019-03-28T20:16:58.094Z,22.07
2019-03-28T20:19:28.930Z,23.07
2019-03-28T20:21:59.684Z,21.37
2019-03-28T20:24:29.916Z,22.27
2019-03-28T20:27:00.024Z,21.20
2019-03-28T20:29:33.179Z,22.43
2019-03-28T20:32:01.724Z,21.70
2019-03-28T20:34:31.716Z,25.08
2019-03-28T20:37:01.734Z,22.77
2019-03-28T20:39:32.792Z,22.50
2019-03-28T20:42:02.957Z,22.60
2019-03-28T20:44:33.008Z,22.50
2019-03-28T20:47:03.064Z,22.58
2019-03-28T20:49:33.094Z,23.75
2019-03-28T20:52:03.161Z,37.38
2019-03-28T20:54:33.863Z,26.00
2019-03-28T20:57:03.910Z,24.00
2019-03-28T20:59:34.083Z,25.12
2019-03-28T21:02:04.192Z,24.70
2019-03-28T21:04:34.633Z,23.83
2019-03-28T21:07:04.892Z,25.17
2019-03-28T21:09:35.116Z,24.65
2019-03-28T21:12:05.134Z,25.05
2019-03-28T21:14:35.294Z,26.23
2019-03-28T21:17:05.434Z,25.20
2019-03-28T21:19:35.478Z,26.10
2019-03-28T21:22:06.083Z,25.12
2019-03-28T21:24:36.153Z,25.90
2019-03-28T21:27:06.943Z,26.10
2019-03-28T21:29:48.393Z,27.45
2019-03-28T21:32:09.109Z,27.58
2019-03-28T21:34:39.102Z,27.32
2019-03-28T21:37:09.077Z,28.32
2019-03-28T21:39:40.286Z,29.20
2019-03-28T21:42:11.829Z,34.70
2019-03-28T21:44:42.285Z,30.68
2019-03-28T21:47:12.337Z,29.93
2019-03-28T21:49:42.330Z,30.30
2019-03-28T21:52:12.361Z,29.92
2019-03-28T21:54:42.474Z,51.50
2019-03-28T21:57:14.593Z,30.55
2019-03-28T21:59:44.195Z,31.52
2019-03-28T22:02:14.259Z,30.60
2019-03-28T22:04:44.272Z,31.10
2019-03-28T22:07:14.920Z,30.43
2019-03-28T22:09:46.239Z,29.50
2019-03-28T22:12:16.515Z,29.82
2019-03-28T22:14:48.293Z,30.15
2019-03-28T22:17:18.465Z,30.00
2019-03-28T22:19:48.487Z,30.57
2019-03-28T22:22:17.601Z,30.53
2019-03-28T22:24:49.406Z,29.15
2019-03-28T22:27:19.491Z,29.92
2019-03-28T22:29:49.643Z,30.48
2019-03-28T22:32:19.652Z,29.75
2019-03-28T22:34:49.689Z,30.27
2019-03-28T22:37:19.822Z,31.90
2019-03-28T22:39:49.994Z,30.45
2019-03-28T22:42:20.116Z,30.52
2019-03-28T22:44:50.974Z,30.95
2019-03-28T22:50:12.177Z,30.45
2019-03-28T22:52:42.231Z,31.07
2019-03-28T22:55:12.880Z,30.30
2019-03-28T22:57:43.052Z,31.35
2019-03-28T23:00:14.750Z,30.50
2019-03-28T23:02:44.858Z,28.83
2019-03-28T23:05:17.024Z,31.33
2019-03-28T23:07:46.980Z,30.53
2019-03-28T23:10:19.406Z,30.30
2019-03-28T23:12:49.030Z,30.97
2019-03-28T23:15:21.780Z,31.90
2019-03-28T23:17:50.800Z,31.12
2019-03-28T23:20:20.804Z,30.02
2019-03-28T23:22:50.810Z,31.97
2019-03-28T23:25:20.784Z,30.32
2019-03-28T23:27:50.804Z,29.87
2019-03-28T23:30:20.986Z,29.12
2019-03-28T23:32:51.090Z,31.25
2019-03-28T23:35:21.070Z,31.05
2019-03-28T23:37:51.130Z,32.33
2019-03-28T23:40:21.863Z,32.13
2019-03-28T23:42:51.919Z,30.77
2019-03-28T23:45:21.972Z,32.35
2019-03-28T23:47:52.228Z,31.57
2019-03-28T23:50:22.281Z,33.20
2019-03-28T23:52:52.298Z,33.73
2019-03-28T23:55:22.826Z,32.42
2019-03-28T23:57:52.823Z,31.63
